sensor_id;sensor_type;location;lat;lon;timestamp;P1;durP1;ratioP1;P2;durP2;ratioP2
17832;SDS011;9041;49.718;21.798;2023-12-04T00:00:33;26.17;;;11.53;;
17832;SDS011;9041;49.718;21.798;2023-12-04T00:03:00;27.17;;;10.60;;
17832;SDS011;9041;49.718;21.798;2023-12-04T00:05:27;27.23;;;11.27;;
17832;SDS011;9041;49.718;21.798;2023-12-04T00:07:56;27.27;;;11.40;;
17832;SDS011;9041;49.718;21.798;2023-12-04T00:10:23;28.37;;;10.90;;
17832;SDS011;9041;49.718;21.798;2023-12-04T00:12:50;30.27;;;11.90;;
17832;SDS011;9041;49.718;21.798;2023-12-04T00:15:18;26.87;;;10.53;;
17832;SDS011;9041;49.718;21.798;2023-12-04T00:17:45;30.10;;;11.13;;
17832;SDS011;9041;49.718;21.798;2023-12-04T00:20:12;27.07;;;11.17;;
17832;SDS011;9041;49.718;21.798;2023-12-04T00:22:38;30.10;;;10.77;;
17832;SDS011;9041;49.718;21.798;2023-12-04T00:25:06;26.70;;;11.17;;
17832;SDS011;9041;49.718;21.798;2023-12-04T00:27:33;27.20;;;11.33;;
17832;SDS011;9041;49.718;21.798;2023-12-04T00:29:59;28.90;;;11.27;;
17832;SDS011;9041;49.718;21.798;2023-12-04T00:32:30;26.70;;;10.87;;
17832;SDS011;9041;49.718;21.798;2023-12-04T00:34:56;29.30;;;11.30;;
17832;SDS011;9041;49.718;21.798;2023-12-04T00:37:23;28.10;;;12.63;;
17832;SDS011;9041;49.718;21.798;2023-12-04T00:39:50;30.07;;;12.07;;
17832;SDS011;9041;49.718;21.798;2023-12-04T00:42:17;36.00;;;13.33;;
17832;SDS011;9041;49.718;21.798;2023-12-04T00:44:43;36.70;;;13.30;;
17832;SDS011;9041;49.718;21.798;2023-12-04T00:47:10;27.33;;;11.53;;
17832;SDS011;9041;49.718;21.798;2023-12-04T00:49:37;25.27;;;9.60;;
17832;SDS011;9041;49.718;21.798;2023-12-04T00:52:04;23.70;;;9.90;;
17832;SDS011;9041;49.718;21.798;2023-12-04T00:54:31;22.70;;;10.13;;
17832;SDS011;9041;49.718;21.798;2023-12-04T00:56:57;23.30;;;8.67;;
17832;SDS011;9041;49.718;21.798;2023-12-04T00:59:24;15.87;;;8.57;;
17832;SDS011;9041;49.718;21.798;2023-12-04T01:01:51;18.77;;;8.13;;
17832;SDS011;9041;49.718;21.798;2023-12-04T01:04:17;24.60;;;8.87;;
17832;SDS011;9041;49.718;21.798;2023-12-04T01:06:45;17.43;;;8.03;;
17832;SDS011;9041;49.718;21.798;2023-12-04T01:09:12;19.63;;;8.17;;
17832;SDS011;9041;49.718;21.798;2023-12-04T01:11:39;20.67;;;8.23;;
17832;SDS011;9041;49.718;21.798;2023-12-04T01:14:05;17.13;;;7.77;;
17832;SDS011;9041;49.718;21.798;2023-12-04T01:16:32;20.07;;;8.00;;
17832;SDS011;9041;49.718;21.798;2023-12-04T01:18:59;20.63;;;7.83;;
17832;SDS011;9041;49.718;21.798;2023-12-04T01:21:26;16.50;;;7.87;;
17832;SDS011;9041;49.718;21.798;2023-12-04T01:23:54;19.77;;;7.63;;
17832;SDS011;9041;49.718;21.798;2023-12-04T01:26:20;18.93;;;7.60;;
17832;SDS011;9041;49.718;21.798;2023-12-04T01:28:55;17.50;;;7.67;;
17832;SDS011;9041;49.718;21.798;2023-12-04T01:31:22;19.87;;;7.80;;
17832;SDS011;9041;49.718;21.798;2023-12-04T01:33:49;24.00;;;8.67;;
17832;SDS011;9041;49.718;21.798;2023-12-04T01:36:16;16.57;;;7.50;;
17832;SDS011;9041;49.718;21.798;2023-12-04T01:38:42;17.10;;;6.93;;
17832;SDS011;9041;49.718;21.798;2023-12-04T01:41:10;17.27;;;7.20;;
17832;SDS011;9041;49.718;21.798;2023-12-04T01:43:37;19.23;;;7.33;;
17832;SDS011;9041;49.718;21.798;2023-12-04T01:46:04;23.13;;;8.70;;
17832;SDS011;9041;49.718;21.798;2023-12-04T01:48:31;20.60;;;8.70;;
17832;SDS011;9041;49.718;21.798;2023-12-04T01:50:57;23.17;;;7.40;;
17832;SDS011;9041;49.718;21.798;2023-12-04T01:53:24;21.27;;;8.43;;
17832;SDS011;9041;49.718;21.798;2023-12-04T01:55:51;24.03;;;9.27;;
17832;SDS011;9041;49.718;21.798;2023-12-04T01:58:39;21.47;;;7.80;;
17832;SDS011;9041;49.718;21.798;2023-12-04T02:01:06;18.70;;;7.70;;
17832;SDS011;9041;49.718;21.798;2023-12-04T02:03:32;21.60;;;7.77;;
17832;SDS011;9041;49.718;21.798;2023-12-04T02:05:59;15.40;;;7.37;;
17832;SDS011;9041;49.718;21.798;2023-12-04T02:08:27;16.30;;;6.97;;
17832;SDS011;9041;49.718;21.798;2023-12-04T02:10:54;24.23;;;8.60;;
17832;SDS011;9041;49.718;21.798;2023-12-04T02:13:21;19.70;;;7.13;;
17832;SDS011;9041;49.718;21.798;2023-12-04T02:15:50;20.47;;;7.37;;
17832;SDS011;9041;49.718;21.798;2023-12-04T02:18:19;18.83;;;7.77;;
17832;SDS011;9041;49.718;21.798;2023-12-04T02:20:46;15.83;;;6.80;;
17832;SDS011;9041;49.718;21.798;2023-12-04T02:23:12;19.53;;;7.87;;
17832;SDS011;9041;49.718;21.798;2023-12-04T02:25:40;18.30;;;6.80;;
17832;SDS011;9041;49.718;21.798;2023-12-04T02:28:07;17.10;;;6.83;;
17832;SDS011;9041;49.718;21.798;2023-12-04T02:30:36;18.10;;;7.20;;
17832;SDS011;9041;49.718;21.798;2023-12-04T02:33:04;18.13;;;7.00;;
17832;SDS011;9041;49.718;21.798;2023-12-04T02:35:32;15.27;;;6.50;;
17832;SDS011;9041;49.718;21.798;2023-12-04T02:38:00;21.77;;;6.93;;
17832;SDS011;9041;49.718;21.798;2023-12-04T02:40:27;18.37;;;7.43;;
17832;SDS011;9041;49.718;21.798;2023-12-04T02:42:55;18.73;;;7.20;;
17832;SDS011;9041;49.718;21.798;2023-12-04T02:45:22;15.10;;;6.73;;
17832;SDS011;9041;49.718;21.798;2023-12-04T02:47:49;18.80;;;6.73;;
17832;SDS011;9041;49.718;21.798;2023-12-04T02:50:15;18.87;;;6.90;;
17832;SDS011;9041;49.718;21.798;2023-12-04T02:52:42;17.00;;;6.00;;
17832;SDS011;9041;49.718;21.798;2023-12-04T02:55:09;14.60;;;6.57;;
17832;SDS011;9041;49.718;21.798;2023-12-04T02:57:35;17.23;;;6.90;;
17832;SDS011;9041;49.718;21.798;2023-12-04T03:00:04;16.23;;;6.00;;
17832;SDS011;9041;49.718;21.798;2023-12-04T03:02:35;15.00;;;6.30;;
17832;SDS011;9041;49.718;21.798;2023-12-04T03:05:02;19.57;;;6.57;;
17832;SDS011;9041;49.718;21.798;2023-12-04T03:07:29;13.03;;;6.60;;
17832;SDS011;9041;49.718;21.798;2023-12-04T03:09:55;15.70;;;6.63;;
17832;SDS011;9041;49.718;21.798;2023-12-04T03:12:22;13.73;;;6.60;;
17832;SDS011;9041;49.718;21.798;2023-12-04T03:14:49;16.47;;;6.53;;
17832;SDS011;9041;49.718;21.798;2023-12-04T03:17:17;15.83;;;6.27;;
17832;SDS011;9041;49.718;21.798;2023-12-04T03:19:43;16.87;;;6.53;;
17832;SDS011;9041;49.718;21.798;2023-12-04T03:22:10;13.57;;;6.20;;
17832;SDS011;9041;49.718;21.798;2023-12-04T03:24:38;16.77;;;6.77;;
17832;SDS011;9041;49.718;21.798;2023-12-04T03:27:03;10.30;;;5.10;;
17832;SDS011;9041;49.718;21.798;2023-12-04T03:29:30;17.70;;;5.97;;
17832;SDS011;9041;49.718;21.798;2023-12-04T03:31:57;13.13;;;6.27;;
17832;SDS011;9041;49.718;21.798;2023-12-04T03:34:24;16.07;;;6.60;;
17832;SDS011;9041;49.718;21.798;2023-12-04T03:36:51;17.27;;;6.60;;
17832;SDS011;9041;49.718;21.798;2023-12-04T03:39:17;14.37;;;5.47;;
17832;SDS011;9041;49.718;21.798;2023-12-04T03:41:44;11.13;;;5.33;;
17832;SDS011;9041;49.718;21.798;2023-12-04T03:44:11;13.73;;;4.73;;
17832;SDS011;9041;49.718;21.798;2023-12-04T03:46:37;14.23;;;5.67;;
17832;SDS011;9041;49.718;21.798;2023-12-04T03:49:04;10.37;;;4.90;;
17832;SDS011;9041;49.718;21.798;2023-12-04T03:51:32;13.10;;;5.50;;
17832;SDS011;9041;49.718;21.798;2023-12-04T03:53:59;14.93;;;5.53;;
17832;SDS011;9041;49.718;21.798;2023-12-04T03:56:25;15.30;;;5.77;;
17832;SDS011;9041;49.718;21.798;2023-12-04T03:58:52;13.47;;;6.23;;
17832;SDS011;9041;49.718;21.798;2023-12-04T04:01:19;13.77;;;5.47;;
17832;SDS011;9041;49.718;21.798;2023-12-04T04:03:45;16.03;;;5.70;;
17832;SDS011;9041;49.718;21.798;2023-12-04T04:06:12;10.80;;;4.90;;
17832;SDS011;9041;49.718;21.798;2023-12-04T04:08:40;14.00;;;5.40;;
17832;SDS011;9041;49.718;21.798;2023-12-04T04:11:06;13.83;;;5.33;;
17832;SDS011;9041;49.718;21.798;2023-12-04T04:13:33;9.53;;;5.13;;
17832;SDS011;9041;49.718;21.798;2023-12-04T04:16:00;11.40;;;5.60;;
17832;SDS011;9041;49.718;21.798;2023-12-04T04:18:27;13.50;;;5.43;;
17832;SDS011;9041;49.718;21.798;2023-12-04T04:20:53;11.60;;;4.97;;
17832;SDS011;9041;49.718;21.798;2023-12-04T04:23:20;15.87;;;7.00;;
17832;SDS011;9041;49.718;21.798;2023-12-04T04:25:48;11.47;;;5.80;;
17832;SDS011;9041;49.718;21.798;2023-12-04T04:28:14;15.30;;;6.00;;
17832;SDS011;9041;49.718;21.798;2023-12-04T04:30:41;12.57;;;5.03;;
17832;SDS011;9041;49.718;21.798;2023-12-04T04:33:08;16.10;;;8.20;;
17832;SDS011;9041;49.718;21.798;2023-12-04T04:35:34;23.07;;;9.07;;
17832;SDS011;9041;49.718;21.798;2023-12-04T04:38:01;29.00;;;11.87;;
17832;SDS011;9041;49.718;21.798;2023-12-04T04:40:27;40.67;;;15.20;;
17832;SDS011;9041;49.718;21.798;2023-12-04T04:42:56;37.13;;;13.87;;
17832;SDS011;9041;49.718;21.798;2023-12-04T04:45:22;49.23;;;16.27;;
17832;SDS011;9041;49.718;21.798;2023-12-04T04:47:49;49.90;;;16.53;;
17832;SDS011;9041;49.718;21.798;2023-12-04T04:50:16;49.20;;;16.33;;
17832;SDS011;9041;49.718;21.798;2023-12-04T04:52:42;39.43;;;16.97;;
17832;SDS011;9041;49.718;21.798;2023-12-04T04:55:09;39.20;;;16.77;;
17832;SDS011;9041;49.718;21.798;2023-12-04T04:57:35;37.57;;;14.70;;
17832;SDS011;9041;49.718;21.798;2023-12-04T05:00:04;37.57;;;14.43;;
17832;SDS011;9041;49.718;21.798;2023-12-04T05:02:31;40.47;;;15.90;;
17832;SDS011;9041;49.718;21.798;2023-12-04T05:04:57;46.50;;;15.73;;
17832;SDS011;9041;49.718;21.798;2023-12-04T05:07:24;39.93;;;14.17;;
17832;SDS011;9041;49.718;21.798;2023-12-04T05:09:51;33.23;;;12.93;;
17832;SDS011;9041;49.718;21.798;2023-12-04T05:12:17;38.37;;;13.97;;
17832;SDS011;9041;49.718;21.798;2023-12-04T05:14:44;32.87;;;12.47;;
17832;SDS011;9041;49.718;21.798;2023-12-04T05:17:12;27.43;;;9.37;;
17832;SDS011;9041;49.718;21.798;2023-12-04T05:19:38;25.00;;;9.77;;
17832;SDS011;9041;49.718;21.798;2023-12-04T05:22:05;25.83;;;9.33;;
17832;SDS011;9041;49.718;21.798;2023-12-04T05:24:32;26.00;;;10.83;;
17832;SDS011;9041;49.718;21.798;2023-12-04T05:27:00;27.83;;;11.30;;
17832;SDS011;9041;49.718;21.798;2023-12-04T05:29:27;35.13;;;12.53;;
17832;SDS011;9041;49.718;21.798;2023-12-04T05:31:54;23.93;;;9.73;;
17832;SDS011;9041;49.718;21.798;2023-12-04T05:34:23;24.30;;;8.67;;
17832;SDS011;9041;49.718;21.798;2023-12-04T05:36:50;23.13;;;9.77;;
17832;SDS011;9041;49.718;21.798;2023-12-04T05:39:16;28.70;;;9.70;;
17832;SDS011;9041;49.718;21.798;2023-12-04T05:41:43;18.80;;;9.57;;
17832;SDS011;9041;49.718;21.798;2023-12-04T05:44:10;22.67;;;9.73;;
17832;SDS011;9041;49.718;21.798;2023-12-04T05:46:36;23.60;;;8.83;;
17832;SDS011;9041;49.718;21.798;2023-12-04T05:49:03;22.00;;;10.23;;
17832;SDS011;9041;49.718;21.798;2023-12-04T05:51:31;22.07;;;8.70;;
17832;SDS011;9041;49.718;21.798;2023-12-04T05:53:58;16.60;;;6.90;;
17832;SDS011;9041;49.718;21.798;2023-12-04T05:56:24;16.43;;;7.10;;
17832;SDS011;9041;49.718;21.798;2023-12-04T05:58:51;17.90;;;8.27;;
17832;SDS011;9041;49.718;21.798;2023-12-04T06:01:17;19.47;;;8.03;;
17832;SDS011;9041;49.718;21.798;2023-12-04T06:03:45;17.40;;;6.60;;
17832;SDS011;9041;49.718;21.798;2023-12-04T06:06:11;16.87;;;6.27;;
17832;SDS011;9041;49.718;21.798;2023-12-04T06:08:40;15.77;;;6.20;;
17832;SDS011;9041;49.718;21.798;2023-12-04T06:11:06;10.30;;;5.20;;
17832;SDS011;9041;49.718;21.798;2023-12-04T06:13:33;11.40;;;5.17;;
17832;SDS011;9041;49.718;21.798;2023-12-04T06:15:59;12.70;;;5.83;;
17832;SDS011;9041;49.718;21.798;2023-12-04T06:18:26;10.13;;;5.33;;
17832;SDS011;9041;49.718;21.798;2023-12-04T06:20:53;17.97;;;6.43;;
17832;SDS011;9041;49.718;21.798;2023-12-04T06:23:19;15.17;;;6.50;;
17832;SDS011;9041;49.718;21.798;2023-12-04T06:25:48;28.07;;;11.23;;
17832;SDS011;9041;49.718;21.798;2023-12-04T06:28:15;23.53;;;9.53;;
17832;SDS011;9041;49.718;21.798;2023-12-04T06:30:42;21.00;;;7.43;;
17832;SDS011;9041;49.718;21.798;2023-12-04T06:33:09;12.93;;;6.37;;
17832;SDS011;9041;49.718;21.798;2023-12-04T06:35:38;14.90;;;6.87;;
17832;SDS011;9041;49.718;21.798;2023-12-04T06:38:06;14.90;;;6.23;;
17832;SDS011;9041;49.718;21.798;2023-12-04T06:40:33;16.37;;;7.03;;
17832;SDS011;9041;49.718;21.798;2023-12-04T06:43:02;20.83;;;8.30;;
17832;SDS011;9041;49.718;21.798;2023-12-04T06:45:29;22.83;;;7.47;;
17832;SDS011;9041;49.718;21.798;2023-12-04T06:47:57;17.20;;;6.70;;
17832;SDS011;9041;49.718;21.798;2023-12-04T06:50:25;16.53;;;6.97;;
17832;SDS011;9041;49.718;21.798;2023-12-04T06:52:51;18.83;;;7.87;;
17832;SDS011;9041;49.718;21.798;2023-12-04T06:55:18;21.03;;;9.37;;
17832;SDS011;9041;49.718;21.798;2023-12-04T06:57:44;28.97;;;12.17;;
17832;SDS011;9041;49.718;21.798;2023-12-04T07:00:13;100.27;;;26.20;;
17832;SDS011;9041;49.718;21.798;2023-12-04T07:02:41;87.03;;;23.07;;
17832;SDS011;9041;49.718;21.798;2023-12-04T07:05:08;114.07;;;29.43;;
17832;SDS011;9041;49.718;21.798;2023-12-04T07:07:35;101.43;;;28.27;;
17832;SDS011;9041;49.718;21.798;2023-12-04T07:10:01;98.20;;;27.47;;
17832;SDS011;9041;49.718;21.798;2023-12-04T07:12:28;104.00;;;29.80;;
17832;SDS011;9041;49.718;21.798;2023-12-04T07:14:55;122.93;;;32.03;;
17832;SDS011;9041;49.718;21.798;2023-12-04T07:17:23;113.03;;;32.53;;
17832;SDS011;9041;49.718;21.798;2023-12-04T07:19:49;95.63;;;26.40;;
17832;SDS011;9041;49.718;21.798;2023-12-04T07:22:16;74.43;;;24.57;;
17832;SDS011;9041;49.718;21.798;2023-12-04T07:24:42;73.23;;;22.37;;
17832;SDS011;9041;49.718;21.798;2023-12-04T07:27:09;71.13;;;22.43;;
17832;SDS011;9041;49.718;21.798;2023-12-04T07:29:36;77.40;;;23.13;;
17832;SDS011;9041;49.718;21.798;2023-12-04T07:32:04;64.90;;;20.00;;
17832;SDS011;9041;49.718;21.798;2023-12-04T07:34:32;61.73;;;18.73;;
17832;SDS011;9041;49.718;21.798;2023-12-04T07:36:59;57.87;;;19.40;;
17832;SDS011;9041;49.718;21.798;2023-12-04T07:39:26;59.03;;;18.43;;
17832;SDS011;9041;49.718;21.798;2023-12-04T07:41:52;63.63;;;17.40;;
17832;SDS011;9041;49.718;21.798;2023-12-04T07:44:19;57.17;;;17.93;;
17832;SDS011;9041;49.718;21.798;2023-12-04T07:46:46;43.93;;;15.33;;
17832;SDS011;9041;49.718;21.798;2023-12-04T07:49:12;47.63;;;15.70;;
17832;SDS011;9041;49.718;21.798;2023-12-04T07:51:40;56.73;;;18.23;;
17832;SDS011;9041;49.718;21.798;2023-12-04T07:54:06;53.30;;;16.33;;
17832;SDS011;9041;49.718;21.798;2023-12-04T07:56:33;52.33;;;16.77;;
17832;SDS011;9041;49.718;21.798;2023-12-04T07:59:00;44.40;;;15.83;;
17832;SDS011;9041;49.718;21.798;2023-12-04T08:01:27;45.03;;;15.37;;
17832;SDS011;9041;49.718;21.798;2023-12-04T08:03:54;42.93;;;14.63;;
17832;SDS011;9041;49.718;21.798;2023-12-04T08:06:20;49.63;;;14.73;;
17832;SDS011;9041;49.718;21.798;2023-12-04T08:08:48;45.60;;;14.77;;
17832;SDS011;9041;49.718;21.798;2023-12-04T08:11:15;42.93;;;14.57;;
17832;SDS011;9041;49.718;21.798;2023-12-04T08:13:42;47.03;;;16.20;;
17832;SDS011;9041;49.718;21.798;2023-12-04T08:16:12;47.00;;;14.83;;
17832;SDS011;9041;49.718;21.798;2023-12-04T08:18:40;24.00;;;9.10;;
17832;SDS011;9041;49.718;21.798;2023-12-04T08:21:06;33.70;;;12.97;;
17832;SDS011;9041;49.718;21.798;2023-12-04T08:23:34;34.63;;;12.23;;
17832;SDS011;9041;49.718;21.798;2023-12-04T08:26:02;40.40;;;12.67;;
17832;SDS011;9041;49.718;21.798;2023-12-04T08:28:30;31.70;;;11.70;;
17832;SDS011;9041;49.718;21.798;2023-12-04T08:30:57;28.97;;;11.50;;
17832;SDS011;9041;49.718;21.798;2023-12-04T08:33:24;35.20;;;12.10;;
17832;SDS011;9041;49.718;21.798;2023-12-04T08:35:50;37.07;;;12.10;;
17832;SDS011;9041;49.718;21.798;2023-12-04T08:38:18;36.83;;;13.03;;
17832;SDS011;9041;49.718;21.798;2023-12-04T08:40:46;36.70;;;14.13;;
17832;SDS011;9041;49.718;21.798;2023-12-04T08:43:14;36.30;;;12.83;;
17832;SDS011;9041;49.718;21.798;2023-12-04T08:45:43;29.03;;;11.93;;
17832;SDS011;9041;49.718;21.798;2023-12-04T08:48:09;26.60;;;10.70;;
17832;SDS011;9041;49.718;21.798;2023-12-04T08:50:38;31.07;;;11.07;;
17832;SDS011;9041;49.718;21.798;2023-12-04T08:53:04;26.87;;;11.20;;
17832;SDS011;9041;49.718;21.798;2023-12-04T08:55:31;34.20;;;12.77;;
17832;SDS011;9041;49.718;21.798;2023-12-04T08:57:58;29.47;;;12.43;;
17832;SDS011;9041;49.718;21.798;2023-12-04T09:00:26;38.93;;;13.53;;
17832;SDS011;9041;49.718;21.798;2023-12-04T09:02:53;38.23;;;13.43;;
17832;SDS011;9041;49.718;21.798;2023-12-04T09:05:19;28.07;;;12.77;;
17832;SDS011;9041;49.718;21.798;2023-12-04T09:07:46;25.17;;;12.40;;
17832;SDS011;9041;49.718;21.798;2023-12-04T09:10:13;40.47;;;14.00;;
17832;SDS011;9041;49.718;21.798;2023-12-04T09:12:39;31.00;;;13.33;;
17832;SDS011;9041;49.718;21.798;2023-12-04T09:15:06;33.07;;;13.63;;
17832;SDS011;9041;49.718;21.798;2023-12-04T09:17:36;32.67;;;13.53;;
17832;SDS011;9041;49.718;21.798;2023-12-04T09:20:04;37.53;;;15.67;;
17832;SDS011;9041;49.718;21.798;2023-12-04T09:22:31;34.50;;;14.27;;
17832;SDS011;9041;49.718;21.798;2023-12-04T09:25:00;40.60;;;14.43;;
17832;SDS011;9041;49.718;21.798;2023-12-04T09:27:26;36.80;;;17.50;;
17832;SDS011;9041;49.718;21.798;2023-12-04T09:29:53;32.50;;;14.60;;
17832;SDS011;9041;49.718;21.798;2023-12-04T09:32:20;23.27;;;11.10;;
17832;SDS011;9041;49.718;21.798;2023-12-04T09:34:48;32.00;;;13.30;;
17832;SDS011;9041;49.718;21.798;2023-12-04T09:37:14;30.37;;;14.53;;
17832;SDS011;9041;49.718;21.798;2023-12-04T09:39:41;28.93;;;12.73;;
17832;SDS011;9041;49.718;21.798;2023-12-04T09:42:07;26.90;;;12.83;;
17832;SDS011;9041;49.718;21.798;2023-12-04T09:44:34;29.77;;;12.50;;
17832;SDS011;9041;49.718;21.798;2023-12-04T09:47:03;28.80;;;14.90;;
17832;SDS011;9041;49.718;21.798;2023-12-04T09:49:30;33.03;;;16.27;;
17832;SDS011;9041;49.718;21.798;2023-12-04T09:51:58;37.27;;;16.57;;
17832;SDS011;9041;49.718;21.798;2023-12-04T09:54:27;41.47;;;16.90;;
17832;SDS011;9041;49.718;21.798;2023-12-04T09:56:55;27.30;;;12.07;;
17832;SDS011;9041;49.718;21.798;2023-12-04T09:59:22;32.07;;;13.70;;
17832;SDS011;9041;49.718;21.798;2023-12-04T10:01:51;35.30;;;14.27;;
17832;SDS011;9041;49.718;21.798;2023-12-04T10:04:18;29.57;;;14.43;;
17832;SDS011;9041;49.718;21.798;2023-12-04T10:06:46;34.63;;;15.47;;
17832;SDS011;9041;49.718;21.798;2023-12-04T10:09:15;33.90;;;14.67;;
17832;SDS011;9041;49.718;21.798;2023-12-04T10:11:43;40.47;;;15.90;;
17832;SDS011;9041;49.718;21.798;2023-12-04T10:14:14;33.90;;;14.57;;
17832;SDS011;9041;49.718;21.798;2023-12-04T10:16:44;29.47;;;13.27;;
17832;SDS011;9041;49.718;21.798;2023-12-04T10:19:15;52.80;;;26.13;;
17832;SDS011;9041;49.718;21.798;2023-12-04T10:21:43;37.97;;;20.17;;
17832;SDS011;9041;49.718;21.798;2023-12-04T10:24:09;33.93;;;14.27;;
17832;SDS011;9041;49.718;21.798;2023-12-04T10:26:37;35.93;;;17.57;;
17832;SDS011;9041;49.718;21.798;2023-12-04T10:29:04;43.80;;;18.77;;
17832;SDS011;9041;49.718;21.798;2023-12-04T10:31:32;36.00;;;16.60;;
17832;SDS011;9041;49.718;21.798;2023-12-04T10:33:59;40.90;;;22.60;;
17832;SDS011;9041;49.718;21.798;2023-12-04T10:36:26;40.60;;;19.23;;
17832;SDS011;9041;49.718;21.798;2023-12-04T10:38:57;35.70;;;14.27;;
17832;SDS011;9041;49.718;21.798;2023-12-04T10:41:25;34.03;;;15.73;;
17832;SDS011;9041;49.718;21.798;2023-12-04T10:43:53;37.23;;;17.67;;
17832;SDS011;9041;49.718;21.798;2023-12-04T10:46:22;40.80;;;16.20;;
17832;SDS011;9041;49.718;21.798;2023-12-04T10:48:50;36.93;;;15.43;;
17832;SDS011;9041;49.718;21.798;2023-12-04T10:51:17;34.93;;;14.87;;
17832;SDS011;9041;49.718;21.798;2023-12-04T10:53:44;34.70;;;14.23;;
17832;SDS011;9041;49.718;21.798;2023-12-04T10:56:11;21.70;;;10.17;;
17832;SDS011;9041;49.718;21.798;2023-12-04T10:58:43;22.23;;;9.53;;
17832;SDS011;9041;49.718;21.798;2023-12-04T11:01:13;17.53;;;9.27;;
17832;SDS011;9041;49.718;21.798;2023-12-04T11:03:40;21.97;;;10.40;;
17832;SDS011;9041;49.718;21.798;2023-12-04T11:06:11;20.70;;;7.97;;
17832;SDS011;9041;49.718;21.798;2023-12-04T11:08:41;23.40;;;12.00;;
17832;SDS011;9041;49.718;21.798;2023-12-04T11:11:10;28.03;;;9.83;;
17832;SDS011;9041;49.718;21.798;2023-12-04T11:13:39;15.87;;;7.93;;
17832;SDS011;9041;49.718;21.798;2023-12-04T11:16:09;19.67;;;8.47;;
17832;SDS011;9041;49.718;21.798;2023-12-04T11:18:44;17.57;;;8.20;;
17832;SDS011;9041;49.718;21.798;2023-12-04T11:21:16;22.53;;;9.37;;
17832;SDS011;9041;49.718;21.798;2023-12-04T11:23:47;16.03;;;7.80;;
17832;SDS011;9041;49.718;21.798;2023-12-04T11:26:14;37.33;;;12.00;;
17832;SDS011;9041;49.718;21.798;2023-12-04T11:28:41;80.70;;;26.63;;
17832;SDS011;9041;49.718;21.798;2023-12-04T11:31:10;28.13;;;12.43;;
17832;SDS011;9041;49.718;21.798;2023-12-04T11:33:39;52.43;;;17.67;;
17832;SDS011;9041;49.718;21.798;2023-12-04T11:36:07;21.27;;;9.47;;
17832;SDS011;9041;49.718;21.798;2023-12-04T11:38:37;23.80;;;10.23;;
17832;SDS011;9041;49.718;21.798;2023-12-04T11:41:14;19.47;;;9.53;;
17832;SDS011;9041;49.718;21.798;2023-12-04T11:43:41;25.63;;;9.13;;
17832;SDS011;9041;49.718;21.798;2023-12-04T11:46:09;21.33;;;9.07;;
17832;SDS011;9041;49.718;21.798;2023-12-04T11:48:38;30.83;;;10.77;;
17832;SDS011;9041;49.718;21.798;2023-12-04T11:51:05;29.07;;;10.30;;
17832;SDS011;9041;49.718;21.798;2023-12-04T11:53:36;22.63;;;9.77;;
17832;SDS011;9041;49.718;21.798;2023-12-04T11:56:08;27.23;;;10.33;;
17832;SDS011;9041;49.718;21.798;2023-12-04T11:58:41;25.90;;;9.57;;
17832;SDS011;9041;49.718;21.798;2023-12-04T12:01:08;22.40;;;9.37;;
17832;SDS011;9041;49.718;21.798;2023-12-04T12:03:34;22.43;;;10.07;;
17832;SDS011;9041;49.718;21.798;2023-12-04T12:06:04;23.13;;;9.23;;
17832;SDS011;9041;49.718;21.798;2023-12-04T12:08:31;29.07;;;13.00;;
17832;SDS011;9041;49.718;21.798;2023-12-04T12:10:58;30.03;;;11.83;;
17832;SDS011;9041;49.718;21.798;2023-12-04T12:13:25;18.80;;;9.53;;
17832;SDS011;9041;49.718;21.798;2023-12-04T12:15:52;28.33;;;12.70;;
17832;SDS011;9041;49.718;21.798;2023-12-04T12:18:18;36.10;;;13.73;;
17832;SDS011;9041;49.718;21.798;2023-12-04T12:20:45;32.43;;;12.67;;
17832;SDS011;9041;49.718;21.798;2023-12-04T12:23:13;33.80;;;13.97;;
17832;SDS011;9041;49.718;21.798;2023-12-04T12:25:39;30.63;;;14.60;;
17832;SDS011;9041;49.718;21.798;2023-12-04T12:28:06;25.07;;;11.50;;
17832;SDS011;9041;49.718;21.798;2023-12-04T12:30:33;29.93;;;13.67;;
17832;SDS011;9041;49.718;21.798;2023-12-04T12:33:01;153.90;;;41.20;;
17832;SDS011;9041;49.718;21.798;2023-12-04T12:35:28;102.63;;;35.47;;
17832;SDS011;9041;49.718;21.798;2023-12-04T12:37:55;73.93;;;27.17;;
17832;SDS011;9041;49.718;21.798;2023-12-04T12:40:23;39.77;;;17.47;;
17832;SDS011;9041;49.718;21.798;2023-12-04T12:42:52;35.20;;;14.57;;
17832;SDS011;9041;49.718;21.798;2023-12-04T12:45:30;25.30;;;11.60;;
17832;SDS011;9041;49.718;21.798;2023-12-04T12:48:05;26.57;;;12.67;;
17832;SDS011;9041;49.718;21.798;2023-12-04T12:50:31;31.07;;;12.43;;
17832;SDS011;9041;49.718;21.798;2023-12-04T12:52:58;31.10;;;11.60;;
17832;SDS011;9041;49.718;21.798;2023-12-04T12:55:26;33.80;;;13.30;;
17832;SDS011;9041;49.718;21.798;2023-12-04T12:57:55;32.47;;;13.30;;
17832;SDS011;9041;49.718;21.798;2023-12-04T13:00:22;27.73;;;13.47;;
17832;SDS011;9041;49.718;21.798;2023-12-04T13:02:48;31.50;;;12.10;;
17832;SDS011;9041;49.718;21.798;2023-12-04T13:05:15;28.97;;;12.57;;
17832;SDS011;9041;49.718;21.798;2023-12-04T13:07:42;29.60;;;12.93;;
17832;SDS011;9041;49.718;21.798;2023-12-04T13:10:09;36.47;;;13.50;;
17832;SDS011;9041;49.718;21.798;2023-12-04T13:12:37;35.43;;;14.57;;
17832;SDS011;9041;49.718;21.798;2023-12-04T13:15:04;42.10;;;17.00;;
17832;SDS011;9041;49.718;21.798;2023-12-04T13:17:35;44.00;;;16.10;;
17832;SDS011;9041;49.718;21.798;2023-12-04T13:20:02;43.70;;;16.07;;
17832;SDS011;9041;49.718;21.798;2023-12-04T13:22:29;38.17;;;14.70;;
17832;SDS011;9041;49.718;21.798;2023-12-04T13:24:58;35.37;;;14.47;;
17832;SDS011;9041;49.718;21.798;2023-12-04T13:27:25;30.87;;;13.33;;
17832;SDS011;9041;49.718;21.798;2023-12-04T13:29:52;35.30;;;13.37;;
17832;SDS011;9041;49.718;21.798;2023-12-04T13:32:19;32.30;;;14.00;;
17832;SDS011;9041;49.718;21.798;2023-12-04T13:34:48;30.57;;;14.40;;
17832;SDS011;9041;49.718;21.798;2023-12-04T13:37:15;35.37;;;14.67;;
17832;SDS011;9041;49.718;21.798;2023-12-04T13:39:42;33.63;;;15.10;;
17832;SDS011;9041;49.718;21.798;2023-12-04T13:42:13;30.97;;;13.27;;
17832;SDS011;9041;49.718;21.798;2023-12-04T13:44:59;35.30;;;16.27;;
17832;SDS011;9041;49.718;21.798;2023-12-04T13:47:26;41.17;;;16.07;;
17832;SDS011;9041;49.718;21.798;2023-12-04T13:49:54;48.23;;;17.20;;
17832;SDS011;9041;49.718;21.798;2023-12-04T13:52:23;52.97;;;17.53;;
17832;SDS011;9041;49.718;21.798;2023-12-04T13:54:50;47.60;;;17.93;;
17832;SDS011;9041;49.718;21.798;2023-12-04T13:57:19;61.07;;;22.50;;
17832;SDS011;9041;49.718;21.798;2023-12-04T13:59:47;50.33;;;18.97;;
17832;SDS011;9041;49.718;21.798;2023-12-04T14:02:15;49.60;;;20.50;;
17832;SDS011;9041;49.718;21.798;2023-12-04T14:04:42;36.73;;;14.97;;
17832;SDS011;9041;49.718;21.798;2023-12-04T14:07:08;46.20;;;18.83;;
17832;SDS011;9041;49.718;21.798;2023-12-04T14:09:50;39.40;;;17.70;;
17832;SDS011;9041;49.718;21.798;2023-12-04T14:12:17;39.67;;;17.60;;
17832;SDS011;9041;49.718;21.798;2023-12-04T14:14:44;47.13;;;19.77;;
17832;SDS011;9041;49.718;21.798;2023-12-04T14:17:10;54.73;;;21.53;;
17832;SDS011;9041;49.718;21.798;2023-12-04T14:19:38;48.07;;;21.00;;
17832;SDS011;9041;49.718;21.798;2023-12-04T14:22:10;70.83;;;27.03;;
17832;SDS011;9041;49.718;21.798;2023-12-04T14:24:36;52.13;;;22.90;;
17832;SDS011;9041;49.718;21.798;2023-12-04T14:27:03;79.43;;;27.97;;